International Virtual Aviation Organisation

Russian Federation and Kazakhstan MCD

 
ULAA 051900Z 33003MPS 180V350 CAVOK M03/M06 Q1018 R26/390148 NOSIG RMK QFE762/1016
QNH:(hPa/inHg/mmHg)1018 / 30.06 / 764
QFE:(hPa/inHg/mmHg)1016 / 29.99 / 762
Temperature-3
Dew Point-6
Visibility> 10000
WeatherCAVOK
Cloud Cover
Transition Height800 m./2700 ft.
Transition LevelFL40
SQUAWK